createdAt,value
2023-11-20T00:04:22.331Z,2.20
2023-11-20T00:10:05.127Z,2.30
2023-11-20T00:15:29.768Z,2.30
2023-11-20T00:20:53.307Z,2.20
2023-11-20T00:26:16.927Z,2.20
2023-11-20T00:31:50.452Z,2.20
2023-11-20T00:37:16.152Z,2.30
2023-11-20T00:42:41.033Z,2.30
2023-11-20T00:48:06.728Z,2.40
2023-11-20T00:53:30.075Z,2.40
2023-11-20T00:58:53.579Z,2.30
2023-11-20T01:04:18.398Z,2.30
2023-11-20T01:09:42.716Z,2.30
2023-11-20T01:15:08.806Z,2.30
2023-11-20T01:20:33.946Z,2.40
2023-11-20T01:25:57.532Z,2.50
2023-11-20T01:31:21.109Z,2.50
2023-11-20T01:36:46.813Z,2.60
2023-11-20T01:42:10.521Z,2.60
2023-11-20T01:47:36.609Z,2.60
2023-11-20T01:53:04.724Z,2.60
2023-11-20T01:58:28.737Z,2.60
2023-11-20T02:03:59.777Z,2.60
2023-11-20T02:09:24.414Z,2.70
2023-11-20T02:14:47.954Z,2.60
2023-11-20T02:20:11.887Z,2.60
2023-11-20T02:25:36.722Z,2.50
2023-11-20T02:31:01.667Z,2.60
2023-11-20T02:36:26.235Z,2.60
2023-11-20T02:41:49.810Z,2.70
2023-11-20T02:47:14.611Z,2.70
2023-11-20T02:52:37.937Z,2.70
2023-11-20T02:58:02.572Z,2.70
2023-11-20T03:03:27.529Z,2.60
2023-11-20T03:08:51.011Z,2.50
2023-11-20T03:14:14.624Z,2.60
2023-11-20T03:19:39.424Z,2.70
2023-11-20T03:25:03.342Z,2.70
2023-11-20T03:30:27.039Z,2.70
2023-11-20T03:35:51.938Z,2.60
2023-11-20T03:41:17.187Z,2.60
2023-11-20T03:46:40.458Z,2.70
2023-11-20T03:52:05.730Z,2.60
2023-11-20T03:57:29.067Z,2.50
2023-11-20T04:02:52.725Z,2.40
2023-11-20T04:08:17.656Z,2.60
2023-11-20T04:13:41.233Z,2.50
2023-11-20T04:19:04.981Z,2.60
2023-11-20T04:24:30.575Z,2.60
2023-11-20T04:29:54.520Z,2.50
2023-11-20T04:35:18.197Z,2.70
2023-11-20T04:40:43.438Z,2.80
2023-11-20T04:46:09.814Z,2.80
2023-11-20T04:51:33.525Z,2.80
2023-11-20T04:56:58.172Z,2.80
2023-11-20T05:02:21.689Z,2.80
2023-11-20T05:07:45.288Z,2.70
2023-11-20T05:13:10.252Z,2.60
2023-11-20T05:18:33.689Z,2.60
2023-11-20T05:23:57.227Z,2.70
2023-11-20T05:29:22.213Z,2.70
2023-11-20T05:34:45.759Z,2.70
2023-11-20T05:40:10.718Z,2.70
2023-11-20T05:45:35.388Z,2.80
2023-11-20T05:50:58.768Z,2.80
2023-11-20T05:56:22.275Z,2.80
2023-11-20T06:01:47.425Z,2.70
2023-11-20T06:13:00.081Z,2.80
2023-11-20T06:18:25.700Z,2.80
2023-11-20T06:23:55.284Z,2.60
2023-11-20T06:29:19.178Z,2.60
2023-11-20T06:34:45.047Z,2.60
2023-11-20T06:47:57.444Z,2.70
2023-11-20T06:54:53.880Z,2.80
2023-11-20T07:14:17.230Z,3.10
2023-11-20T07:34:04.432Z,3.00
2023-11-20T07:39:51.003Z,3.10
2023-11-20T07:45:15.605Z,3.10
2023-11-20T07:50:47.522Z,3.00
2023-11-20T07:56:11.770Z,3.00
2023-11-20T08:01:36.074Z,3.10
2023-11-20T08:07:14.482Z,3.20
2023-11-20T08:13:15.581Z,3.00
2023-11-20T08:18:42.825Z,3.10
2023-11-20T08:24:10.340Z,3.20
2023-11-20T08:29:33.637Z,3.20
2023-11-20T08:34:57.920Z,3.20
2023-11-20T08:40:28.205Z,3.30
2023-11-20T08:46:09.158Z,3.30
2023-11-20T08:51:49.241Z,3.10
2023-11-20T08:57:26.043Z,3.30
2023-11-20T09:02:51.398Z,3.30
2023-11-20T09:08:19.586Z,3.20
2023-11-20T09:13:47.730Z,3.30
2023-11-20T09:19:14.391Z,3.30
2023-11-20T09:24:46.929Z,3.40
2023-11-20T09:30:36.897Z,3.50
2023-11-20T09:36:15.425Z,3.50
2023-11-20T09:41:43.226Z,3.50
2023-11-20T09:47:11.268Z,3.50
2023-11-20T09:52:40.332Z,3.50
2023-11-20T09:58:09.263Z,3.50
2023-11-20T10:03:41.767Z,3.30
2023-11-20T10:09:38.011Z,3.30
2023-11-20T10:15:02.393Z,3.30
2023-11-20T10:20:54.520Z,3.50
2023-11-20T10:26:26.433Z,3.50
2023-11-20T10:31:55.638Z,3.30
2023-11-20T10:37:59.321Z,3.50
2023-11-20T10:43:35.931Z,3.40
2023-11-20T10:49:11.476Z,3.50
2023-11-20T10:54:52.250Z,3.50
2023-11-20T11:00:19.065Z,3.60
2023-11-20T11:05:49.743Z,3.60
2023-11-20T11:12:02.483Z,3.60
2023-11-20T11:17:57.296Z,3.30
2023-11-20T11:23:49.545Z,3.30
2023-11-20T11:29:28.802Z,3.60
2023-11-20T11:35:31.639Z,3.70
2023-11-20T11:41:27.613Z,3.60
2023-11-20T11:46:58.882Z,3.60
2023-11-20T11:52:28.678Z,3.70
2023-11-20T11:58:01.053Z,3.80
2023-11-20T12:03:43.565Z,3.90
2023-11-20T12:09:10.729Z,3.80
2023-11-20T12:14:40.933Z,3.70
2023-11-20T12:20:10.483Z,3.70
2023-11-20T12:26:18.502Z,3.60
2023-11-20T12:31:57.717Z,3.70
2023-11-20T12:37:45.139Z,3.60
2023-11-20T12:43:11.046Z,3.60
2023-11-20T12:49:01.650Z,3.60
2023-11-20T12:54:32.198Z,3.60
2023-11-20T12:59:56.430Z,3.60
2023-11-20T13:05:25.405Z,3.60
2023-11-20T13:10:56.345Z,3.70
2023-11-20T13:16:27.495Z,3.70
2023-11-20T13:22:02.646Z,3.70
2023-11-20T13:27:28.019Z,3.70
2023-11-20T13:32:55.753Z,3.70
2023-11-20T13:38:20.288Z,3.40
2023-11-20T13:43:46.023Z,3.50
2023-11-20T13:49:09.783Z,3.50
2023-11-20T13:54:35.404Z,3.60
2023-11-20T14:00:09.720Z,3.70
2023-11-20T14:05:43.714Z,3.60
2023-11-20T14:11:10.715Z,3.60
2023-11-20T14:16:43.011Z,3.50
2023-11-20T14:22:08.602Z,3.30
2023-11-20T14:27:31.815Z,3.20
2023-11-20T14:32:58.164Z,3.20
2023-11-20T14:38:43.988Z,3.20
2023-11-20T14:44:08.985Z,3.20
2023-11-20T14:49:40.489Z,3.20
2023-11-20T14:55:08.843Z,3.10
2023-11-20T15:00:35.442Z,3.10
2023-11-20T15:06:00.805Z,3.20
2023-11-20T15:11:26.987Z,3.30
2023-11-20T15:16:50.278Z,3.00
2023-11-20T15:22:15.159Z,3.00
2023-11-20T15:27:45.018Z,3.10
2023-11-20T15:33:08.528Z,3.00
2023-11-20T15:38:33.373Z,3.10
2023-11-20T15:43:56.698Z,3.10
2023-11-20T15:49:20.014Z,3.00
2023-11-20T15:54:44.883Z,3.00
2023-11-20T16:00:10.412Z,3.00
2023-11-20T16:05:36.252Z,2.80
2023-11-20T16:11:00.968Z,2.80
2023-11-20T16:16:24.283Z,2.80
2023-11-20T16:21:47.928Z,2.90
2023-11-20T16:27:13.461Z,2.90
2023-11-20T16:32:36.585Z,2.90
2023-11-20T16:37:59.770Z,2.90
2023-11-20T16:43:24.551Z,2.80
2023-11-20T16:48:47.686Z,2.80
2023-11-20T16:54:10.776Z,2.80
2023-11-20T16:59:35.384Z,2.80
2023-11-20T17:05:00.357Z,2.70
2023-11-20T17:10:27.089Z,2.60
2023-11-20T17:15:51.778Z,2.60
2023-11-20T17:21:17.706Z,2.60
2023-11-20T17:26:41.976Z,2.30
2023-11-20T17:32:07.668Z,2.40
2023-11-20T17:37:30.934Z,2.50
2023-11-20T17:42:54.356Z,2.60
2023-11-20T17:48:19.016Z,2.30
2023-11-20T17:53:42.258Z,2.30
2023-11-20T17:59:08.714Z,2.30
2023-11-20T18:04:36.370Z,2.30
2023-11-20T18:10:00.260Z,2.20
2023-11-20T18:15:25.310Z,2.20
2023-11-20T18:20:50.260Z,2.20
2023-11-20T18:26:13.325Z,2.20
2023-11-20T18:31:36.459Z,2.30
2023-11-20T18:37:01.512Z,2.00
2023-11-20T18:42:25.018Z,2.10
2023-11-20T18:47:48.483Z,2.20
2023-11-20T18:53:13.200Z,2.10
2023-11-20T18:58:36.573Z,2.00
2023-11-20T19:03:59.754Z,1.90
2023-11-20T19:09:24.883Z,2.00
2023-11-20T19:14:49.346Z,1.90
2023-11-20T19:20:13.637Z,1.90
2023-11-20T19:25:39.017Z,1.90
2023-11-20T19:31:02.159Z,1.90
2023-11-20T19:36:28.973Z,1.70
2023-11-20T19:41:53.383Z,1.80
2023-11-20T19:47:16.720Z,1.90
2023-11-20T19:52:39.925Z,1.70
2023-11-20T19:58:04.611Z,1.80
2023-11-20T20:03:27.919Z,1.80
2023-11-20T20:08:51.154Z,1.70
2023-11-20T20:14:16.023Z,1.70
2023-11-20T20:19:39.252Z,1.70
2023-11-20T20:25:02.968Z,1.70
2023-11-20T20:30:28.138Z,1.70
2023-11-20T20:35:51.370Z,1.70
2023-11-20T20:41:14.689Z,1.70
2023-11-20T20:46:39.396Z,1.70
2023-11-20T20:52:03.231Z,1.80
2023-11-20T20:57:26.882Z,1.80
2023-11-20T21:02:51.768Z,1.80
2023-11-20T21:08:15.118Z,1.70
2023-11-20T21:13:38.801Z,1.60
2023-11-20T21:19:03.680Z,1.60
2023-11-20T21:24:26.987Z,1.40
2023-11-20T21:29:50.129Z,1.30
2023-11-20T21:35:14.646Z,1.30
2023-11-20T21:40:37.617Z,0.90
2023-11-20T21:46:00.844Z,1.10
2023-11-20T21:51:25.411Z,1.10
2023-11-20T21:56:48.747Z,1.30
2023-11-20T22:02:12.214Z,1.40
2023-11-20T22:07:36.906Z,1.40
2023-11-20T22:12:59.954Z,1.30
2023-11-20T22:18:23.442Z,1.40
2023-11-20T22:23:48.233Z,1.50
2023-11-20T22:29:11.211Z,1.50
2023-11-20T22:34:35.621Z,1.40
2023-11-20T22:40:00.474Z,1.30
2023-11-20T22:45:23.784Z,1.40
2023-11-20T22:50:46.873Z,1.40
2023-11-20T22:56:11.900Z,1.40
2023-11-20T23:01:35.207Z,1.40
2023-11-20T23:06:58.584Z,1.40
2023-11-20T23:12:23.319Z,1.30
2023-11-20T23:17:46.769Z,1.20
2023-11-20T23:23:10.283Z,1.30
2023-11-20T23:28:38.344Z,1.20
2023-11-20T23:34:01.594Z,1.00
2023-11-20T23:39:24.849Z,1.20
2023-11-20T23:44:49.549Z,1.00
2023-11-20T23:50:13.015Z,1.00
2023-11-20T23:55:36.209Z,1.00
